createdAt,value
2017-09-29T00:00:00.416Z,14.70
2017-09-29T00:02:28.158Z,14.70
2017-09-29T00:04:55.708Z,14.70
2017-09-29T00:07:23.261Z,14.60
2017-09-29T00:09:50.934Z,14.70
2017-09-29T00:12:18.614Z,14.60
2017-09-29T00:14:46.172Z,14.60
2017-09-29T00:17:13.695Z,14.60
2017-09-29T00:19:41.998Z,14.60
2017-09-29T00:22:09.668Z,14.60
2017-09-29T00:24:37.201Z,14.60
2017-09-29T00:27:04.739Z,14.60
2017-09-29T00:29:33.084Z,14.60
2017-09-29T00:32:00.824Z,14.60
2017-09-29T00:34:28.367Z,14.50
2017-09-29T00:36:55.955Z,14.50
2017-09-29T00:39:23.525Z,14.50
2017-09-29T00:41:51.051Z,14.50
2017-09-29T00:44:18.581Z,14.50
2017-09-29T00:46:46.287Z,14.50
2017-09-29T00:49:13.846Z,14.40
2017-09-29T00:51:41.353Z,14.50
2017-09-29T00:54:08.989Z,14.50
2017-09-29T00:56:36.620Z,14.40
2017-09-29T00:59:04.180Z,14.40
2017-09-29T01:01:31.717Z,14.40
2017-09-29T01:04:00.059Z,14.50
2017-09-29T01:06:27.634Z,14.50
2017-09-29T01:08:55.182Z,14.50
2017-09-29T01:11:22.749Z,14.50
2017-09-29T01:13:51.127Z,14.50
2017-09-29T01:16:20.247Z,14.50
2017-09-29T01:18:48.553Z,14.50
2017-09-29T01:21:16.138Z,14.50
2017-09-29T01:23:43.689Z,14.50
2017-09-29T01:26:11.431Z,14.50
2017-09-29T01:28:38.977Z,14.50
2017-09-29T01:31:06.585Z,14.50
2017-09-29T01:33:34.216Z,14.50
2017-09-29T01:36:01.832Z,14.50
2017-09-29T01:38:30.214Z,14.50
2017-09-29T01:40:58.538Z,14.40
2017-09-29T01:43:26.064Z,14.40
2017-09-29T01:45:54.387Z,14.40
2017-09-29T01:48:21.951Z,14.40
2017-09-29T01:50:49.529Z,14.50
2017-09-29T01:53:17.049Z,14.50
2017-09-29T01:55:44.605Z,14.50
2017-09-29T01:58:12.263Z,14.40
2017-09-29T02:00:39.791Z,14.50
2017-09-29T02:03:08.111Z,14.50
2017-09-29T02:05:35.642Z,14.40
2017-09-29T02:08:03.181Z,14.40
2017-09-29T02:10:31.563Z,14.50
2017-09-29T02:12:59.897Z,14.50
2017-09-29T02:15:27.418Z,14.40
2017-09-29T02:17:54.974Z,14.40
2017-09-29T02:20:24.372Z,14.40
2017-09-29T02:22:52.673Z,14.40
2017-09-29T02:25:20.217Z,14.40
2017-09-29T02:27:47.746Z,14.40
2017-09-29T02:30:17.666Z,14.40
2017-09-29T02:32:46.089Z,14.50
2017-09-29T02:35:13.759Z,14.40
2017-09-29T02:37:41.320Z,14.50
2017-09-29T02:40:08.873Z,14.50
2017-09-29T02:42:37.436Z,14.50
2017-09-29T02:45:06.675Z,14.50
2017-09-29T02:47:34.266Z,14.50
2017-09-29T02:50:02.618Z,14.50
2017-09-29T02:52:30.225Z,14.50
2017-09-29T02:54:57.717Z,14.50
2017-09-29T02:57:39.827Z,14.50
2017-09-29T03:00:13.080Z,14.50
2017-09-29T03:02:42.915Z,14.40
2017-09-29T03:05:13.237Z,14.50
2017-09-29T03:07:40.850Z,14.50
2017-09-29T03:10:08.562Z,14.50
2017-09-29T03:12:36.132Z,14.50
2017-09-29T03:15:03.690Z,14.50
2017-09-29T03:17:31.451Z,14.40
2017-09-29T03:19:59.021Z,14.50
2017-09-29T03:22:26.555Z,14.40
2017-09-29T03:24:54.229Z,14.40
2017-09-29T03:27:21.908Z,14.40
2017-09-29T03:29:49.426Z,14.40
2017-09-29T03:32:17.802Z,14.40
2017-09-29T03:34:45.927Z,14.40
2017-09-29T03:37:13.571Z,14.40
2017-09-29T03:39:41.098Z,14.40
2017-09-29T03:42:09.432Z,14.40
2017-09-29T03:44:36.982Z,14.40
2017-09-29T03:47:04.497Z,14.40
2017-09-29T03:49:32.823Z,14.40
2017-09-29T03:52:02.879Z,14.40
2017-09-29T03:54:35.081Z,14.50
2017-09-29T03:57:03.720Z,14.40
2017-09-29T03:59:31.314Z,14.50
2017-09-29T04:01:59.912Z,14.50
2017-09-29T04:04:27.487Z,14.40
2017-09-29T04:06:55.076Z,14.40
2017-09-29T04:09:22.818Z,14.30
2017-09-29T04:11:50.527Z,14.40
2017-09-29T04:14:18.866Z,14.40
2017-09-29T04:16:46.515Z,14.40
2017-09-29T04:19:14.158Z,14.40
2017-09-29T04:21:41.705Z,14.40
2017-09-29T04:24:09.406Z,14.40
2017-09-29T04:26:36.957Z,14.40
2017-09-29T04:29:05.334Z,14.40
2017-09-29T04:31:32.905Z,14.40
2017-09-29T04:34:01.177Z,14.40
2017-09-29T04:36:28.867Z,14.30
2017-09-29T04:39:16.760Z,14.30
2017-09-29T04:41:44.293Z,14.30
2017-09-29T04:44:11.984Z,14.30
2017-09-29T04:46:39.567Z,14.30
2017-09-29T04:49:07.100Z,14.30
2017-09-29T04:51:35.458Z,14.20
2017-09-29T04:54:03.089Z,14.30
2017-09-29T04:56:30.775Z,14.30
2017-09-29T04:58:59.326Z,14.20
2017-09-29T05:01:26.982Z,14.20
2017-09-29T05:03:54.569Z,14.20
2017-09-29T05:06:22.930Z,14.20
2017-09-29T05:08:51.537Z,14.20
2017-09-29T05:11:19.166Z,14.20
2017-09-29T05:13:46.776Z,14.20
2017-09-29T05:16:14.464Z,14.20
2017-09-29T05:18:42.142Z,14.20
2017-09-29T05:21:09.856Z,14.20
2017-09-29T05:23:37.565Z,14.30
2017-09-29T05:26:05.197Z,14.30
2017-09-29T05:28:32.813Z,14.30
2017-09-29T05:31:00.537Z,14.30
2017-09-29T05:33:28.196Z,14.30
2017-09-29T05:35:55.858Z,14.30
2017-09-29T05:38:23.475Z,14.30
2017-09-29T05:40:54.658Z,14.30
2017-09-29T05:43:22.358Z,14.30
2017-09-29T05:45:50.904Z,14.30
2017-09-29T05:48:19.646Z,14.30
2017-09-29T05:50:48.199Z,14.40
2017-09-29T05:53:15.834Z,14.30
2017-09-29T05:55:43.501Z,14.30
2017-09-29T05:58:11.057Z,14.30
2017-09-29T06:00:39.545Z,14.40
2017-09-29T06:03:07.173Z,14.40
2017-09-29T06:05:34.793Z,14.40
2017-09-29T06:08:02.543Z,14.40
2017-09-29T06:10:30.175Z,14.40
2017-09-29T06:12:58.002Z,14.40
2017-09-29T06:15:26.775Z,14.50
2017-09-29T06:17:55.626Z,14.40
2017-09-29T06:20:23.636Z,14.40
2017-09-29T06:22:52.988Z,14.40
2017-09-29T06:25:21.529Z,14.40
2017-09-29T06:27:54.228Z,14.50
2017-09-29T06:30:22.534Z,14.50
2017-09-29T06:32:51.042Z,14.50
2017-09-29T06:35:19.023Z,14.50
2017-09-29T06:37:46.576Z,14.50
2017-09-29T06:40:14.225Z,14.50
2017-09-29T06:42:41.827Z,14.60
2017-09-29T06:45:10.267Z,14.60
2017-09-29T06:47:37.919Z,14.60
2017-09-29T06:50:05.580Z,14.60
2017-09-29T06:52:34.291Z,14.60
2017-09-29T06:55:02.021Z,14.60
2017-09-29T06:57:29.615Z,14.70
2017-09-29T06:59:58.045Z,14.70
2017-09-29T07:02:25.588Z,14.70
2017-09-29T07:04:54.717Z,14.70
2017-09-29T07:07:22.386Z,14.70
2017-09-29T07:09:49.946Z,14.70
2017-09-29T07:12:17.548Z,14.70
2017-09-29T07:14:45.265Z,14.70
2017-09-29T07:17:13.669Z,14.80
2017-09-29T07:19:41.303Z,14.80
2017-09-29T07:22:08.984Z,14.80
2017-09-29T07:24:38.853Z,14.80
2017-09-29T07:27:09.317Z,14.80
2017-09-29T07:29:38.542Z,14.80
2017-09-29T07:32:08.356Z,14.80
2017-09-29T07:34:35.908Z,14.90
2017-09-29T07:37:03.557Z,14.90
2017-09-29T07:39:31.117Z,14.90
2017-09-29T07:41:58.715Z,15.00
2017-09-29T07:44:26.500Z,15.00
2017-09-29T07:46:54.884Z,15.00
2017-09-29T07:49:23.470Z,15.00
2017-09-29T07:51:51.052Z,15.10
2017-09-29T07:54:18.630Z,15.10
2017-09-29T07:56:46.188Z,15.20
2017-09-29T07:59:13.756Z,15.30
2017-09-29T08:01:41.303Z,15.40
2017-09-29T08:04:08.952Z,15.40
2017-09-29T08:06:36.608Z,15.50
2017-09-29T08:09:04.251Z,15.60
2017-09-29T08:11:32.095Z,15.70
2017-09-29T08:13:59.713Z,15.70
2017-09-29T08:16:31.338Z,15.90
2017-09-29T08:21:52.063Z,16.00
2017-09-29T08:24:19.678Z,16.10
2017-09-29T08:26:47.300Z,16.20
2017-09-29T08:29:15.077Z,16.30
2017-09-29T08:31:42.731Z,16.40
2017-09-29T08:34:10.393Z,16.50
2017-09-29T08:36:38.097Z,16.60
2017-09-29T08:39:06.994Z,16.90
2017-09-29T08:41:34.555Z,16.80
2017-09-29T08:44:03.167Z,16.90
2017-09-29T08:46:30.752Z,16.90
2017-09-29T08:48:58.344Z,17.00
2017-09-29T08:51:26.081Z,17.10
2017-09-29T08:53:53.674Z,17.20
2017-09-29T08:56:21.209Z,17.30
2017-09-29T08:58:48.942Z,17.40
2017-09-29T09:01:16.481Z,17.40
2017-09-29T09:03:44.918Z,17.60
2017-09-29T09:06:12.554Z,17.60
2017-09-29T09:08:40.134Z,17.80
2017-09-29T09:11:07.902Z,17.90
2017-09-29T09:13:35.489Z,18.00
2017-09-29T09:16:03.865Z,18.30
2017-09-29T09:18:32.402Z,18.30
2017-09-29T09:21:00.120Z,18.40
2017-09-29T09:23:27.671Z,18.40
2017-09-29T09:25:55.342Z,18.40
2017-09-29T09:28:22.982Z,18.40
2017-09-29T09:30:50.548Z,18.50
2017-09-29T09:33:18.142Z,18.40
2017-09-29T09:35:46.477Z,18.60
2017-09-29T09:38:14.078Z,18.50
2017-09-29T09:40:41.687Z,18.60
2017-09-29T09:43:09.357Z,18.70
2017-09-29T09:45:36.996Z,18.60
2017-09-29T09:48:04.663Z,18.70
2017-09-29T09:50:34.005Z,18.70
2017-09-29T09:53:01.551Z,18.70
2017-09-29T09:55:29.084Z,18.70
2017-09-29T09:57:56.667Z,18.60
2017-09-29T10:00:25.095Z,18.60
2017-09-29T10:02:52.784Z,18.60
2017-09-29T10:05:21.425Z,18.60
2017-09-29T10:07:49.968Z,18.50
2017-09-29T10:10:18.573Z,18.50
2017-09-29T10:12:46.193Z,18.50
2017-09-29T10:15:13.790Z,18.50
2017-09-29T10:17:42.222Z,18.50
2017-09-29T10:20:09.922Z,18.50
2017-09-29T10:22:37.467Z,18.60
2017-09-29T10:25:05.119Z,18.70
2017-09-29T10:27:32.855Z,18.80
2017-09-29T10:30:00.642Z,18.90
2017-09-29T10:32:28.240Z,18.90
2017-09-29T10:34:55.818Z,18.90
2017-09-29T10:37:24.215Z,18.80
2017-09-29T10:39:51.838Z,18.80
2017-09-29T10:42:19.442Z,19.00
2017-09-29T10:44:47.123Z,19.00
2017-09-29T10:47:14.880Z,19.10
2017-09-29T10:49:43.196Z,19.20
2017-09-29T10:52:11.349Z,19.30
2017-09-29T10:54:39.021Z,19.40
2017-09-29T10:57:06.772Z,19.40
2017-09-29T10:59:34.557Z,19.50
2017-09-29T11:02:02.235Z,19.70
2017-09-29T11:04:29.991Z,19.80
2017-09-29T11:06:57.567Z,19.90
2017-09-29T11:09:26.032Z,19.90
2017-09-29T11:11:53.640Z,19.90
2017-09-29T11:14:21.945Z,20.00
2017-09-29T11:16:50.503Z,20.00
2017-09-29T11:19:28.752Z,20.10
2017-09-29T11:21:58.238Z,20.10
2017-09-29T11:24:28.586Z,20.10
2017-09-29T11:26:56.361Z,20.10
2017-09-29T11:29:25.533Z,20.20
2017-09-29T11:31:53.902Z,20.20
2017-09-29T11:34:21.606Z,20.20
2017-09-29T11:36:49.195Z,20.40
2017-09-29T11:39:17.608Z,20.60
2017-09-29T11:41:45.250Z,20.60
2017-09-29T11:44:12.937Z,20.70
2017-09-29T11:46:40.698Z,20.60
2017-09-29T11:49:08.952Z,20.80
2017-09-29T11:51:36.734Z,20.80
2017-09-29T11:54:04.512Z,20.70
2017-09-29T11:56:32.129Z,20.80
2017-09-29T11:58:59.823Z,20.70
2017-09-29T12:01:28.823Z,20.80
2017-09-29T12:03:56.599Z,20.80
2017-09-29T12:06:25.112Z,20.90
2017-09-29T12:08:52.707Z,21.10
2017-09-29T12:11:20.348Z,21.10
2017-09-29T12:13:49.732Z,21.30
2017-09-29T12:16:18.278Z,21.20
2017-09-29T12:18:45.983Z,21.40
2017-09-29T12:21:13.768Z,21.40
2017-09-29T12:23:42.280Z,21.60
2017-09-29T12:26:09.891Z,21.60
2017-09-29T12:28:37.616Z,21.50
2017-09-29T12:31:05.374Z,21.50
2017-09-29T12:33:32.992Z,21.50
2017-09-29T12:36:01.493Z,21.40
2017-09-29T12:38:29.280Z,21.40
2017-09-29T12:40:57.513Z,21.50
2017-09-29T12:43:25.226Z,21.60
2017-09-29T12:45:53.903Z,21.50
2017-09-29T12:48:21.534Z,21.60
2017-09-29T12:50:49.902Z,21.50
2017-09-29T12:53:19.211Z,21.40
2017-09-29T12:55:47.688Z,21.30
2017-09-29T12:58:16.018Z,21.20
2017-09-29T13:00:45.300Z,21.10
2017-09-29T13:03:13.635Z,21.10
2017-09-29T13:05:41.211Z,21.10
2017-09-29T13:08:09.861Z,21.00
2017-09-29T13:10:38.579Z,21.00
2017-09-29T13:13:07.183Z,21.10
2017-09-29T13:15:35.796Z,21.10
2017-09-29T13:18:03.444Z,21.20
2017-09-29T13:20:31.408Z,21.40
2017-09-29T13:22:59.183Z,21.40
2017-09-29T13:25:27.139Z,21.40
2017-09-29T13:27:55.564Z,21.60
2017-09-29T13:30:23.170Z,21.60
2017-09-29T13:32:51.575Z,21.60
2017-09-29T13:35:19.234Z,21.70
2017-09-29T13:37:46.786Z,21.70
2017-09-29T13:40:14.448Z,21.70
2017-09-29T13:42:43.280Z,21.80
2017-09-29T13:45:10.895Z,22.00
2017-09-29T13:47:38.527Z,22.00
2017-09-29T13:50:07.684Z,21.80
2017-09-29T13:52:35.428Z,21.80
2017-09-29T13:57:55.874Z,21.80
2017-09-29T14:00:23.554Z,21.80
2017-09-29T14:02:51.087Z,21.90
2017-09-29T14:05:18.708Z,21.80
2017-09-29T14:07:46.268Z,21.80
2017-09-29T14:10:13.837Z,21.80
2017-09-29T14:12:41.339Z,21.80
2017-09-29T14:15:09.715Z,21.70
2017-09-29T14:17:37.218Z,21.80
2017-09-29T14:20:04.849Z,21.80
2017-09-29T14:22:33.150Z,21.70
2017-09-29T14:25:00.729Z,21.70
2017-09-29T14:27:28.280Z,21.80
2017-09-29T14:29:55.807Z,21.80
2017-09-29T14:32:24.138Z,21.80
2017-09-29T14:34:51.667Z,21.80
2017-09-29T14:37:19.304Z,21.70
2017-09-29T14:39:47.669Z,21.40
2017-09-29T14:42:16.085Z,21.50
2017-09-29T14:44:43.676Z,21.50
2017-09-29T14:47:11.800Z,21.60
2017-09-29T14:49:40.444Z,21.60
2017-09-29T14:52:09.010Z,21.60
2017-09-29T14:54:36.631Z,21.70
2017-09-29T14:57:05.049Z,21.40
2017-09-29T14:59:32.682Z,21.40
2017-09-29T15:02:00.282Z,21.40
2017-09-29T15:04:28.032Z,21.40
2017-09-29T15:06:58.119Z,21.40
2017-09-29T15:09:26.513Z,21.40
2017-09-29T15:11:54.093Z,21.40
2017-09-29T15:14:21.748Z,21.30
2017-09-29T15:16:49.290Z,21.40
2017-09-29T15:19:16.870Z,21.40
2017-09-29T15:21:44.472Z,21.30
2017-09-29T15:27:05.491Z,21.20
2017-09-29T15:29:33.084Z,21.10
2017-09-29T15:32:00.782Z,21.10
2017-09-29T15:34:28.406Z,21.00
2017-09-29T15:36:56.733Z,20.90
2017-09-29T15:39:24.340Z,20.90
2017-09-29T15:41:52.778Z,20.90
2017-09-29T15:44:21.649Z,20.80
2017-09-29T15:46:49.223Z,20.90
2017-09-29T15:49:16.870Z,20.80
2017-09-29T15:51:44.456Z,20.80
2017-09-29T15:54:12.024Z,20.70
2017-09-29T15:56:39.661Z,20.70
2017-09-29T15:59:07.206Z,20.70
2017-09-29T16:01:36.230Z,20.60
2017-09-29T16:04:04.086Z,20.60
2017-09-29T16:06:31.875Z,20.60
2017-09-29T16:09:00.982Z,20.50
2017-09-29T16:11:30.188Z,20.50
2017-09-29T16:13:59.091Z,20.40
2017-09-29T16:16:28.746Z,20.40
2017-09-29T16:18:56.506Z,20.30
2017-09-29T16:21:24.094Z,20.30
2017-09-29T16:23:51.676Z,20.30
2017-09-29T16:26:20.076Z,20.10
2017-09-29T16:28:47.612Z,20.00
2017-09-29T16:31:16.674Z,19.80
2017-09-29T16:33:44.210Z,19.80
2017-09-29T16:36:13.323Z,19.70
2017-09-29T16:38:40.970Z,19.70
2017-09-29T16:41:09.583Z,19.60
2017-09-29T16:43:37.198Z,19.50
2017-09-29T16:46:04.793Z,19.40
2017-09-29T16:48:32.391Z,19.30
2017-09-29T16:51:00.919Z,19.10
2017-09-29T16:53:29.541Z,19.10
2017-09-29T16:55:57.982Z,19.00
2017-09-29T16:58:27.773Z,19.00
2017-09-29T17:00:55.556Z,18.80
2017-09-29T17:03:23.166Z,18.80
2017-09-29T17:05:52.314Z,18.70
2017-09-29T17:08:19.947Z,18.70
2017-09-29T17:10:49.180Z,18.50
2017-09-29T17:13:17.001Z,18.50
2017-09-29T17:15:45.366Z,18.40
2017-09-29T17:18:13.707Z,18.30
2017-09-29T17:20:41.252Z,18.30
2017-09-29T17:23:09.682Z,18.20
2017-09-29T17:25:37.346Z,18.20
2017-09-29T17:28:05.234Z,18.10
2017-09-29T17:30:33.979Z,18.00
2017-09-29T17:33:01.622Z,18.00
2017-09-29T17:35:29.246Z,17.90
2017-09-29T17:38:02.586Z,17.80
2017-09-29T17:40:30.148Z,17.80
2017-09-29T17:42:57.778Z,17.70
2017-09-29T17:45:25.335Z,17.70
2017-09-29T17:47:53.013Z,17.60
2017-09-29T17:50:20.657Z,17.60
2017-09-29T17:52:48.531Z,17.50
2017-09-29T17:55:16.089Z,17.50
2017-09-29T17:57:43.699Z,17.50
2017-09-29T18:00:11.300Z,17.40
2017-09-29T18:02:39.592Z,17.30
2017-09-29T18:05:07.979Z,17.30
2017-09-29T18:07:35.649Z,17.30
2017-09-29T18:10:03.248Z,17.20
2017-09-29T18:12:30.778Z,17.20
2017-09-29T18:14:59.177Z,17.20
2017-09-29T18:17:26.812Z,17.10
2017-09-29T18:19:54.341Z,17.10
2017-09-29T18:22:22.947Z,17.00
2017-09-29T18:24:50.496Z,17.00
2017-09-29T18:27:18.055Z,16.90
2017-09-29T18:29:45.807Z,16.90
2017-09-29T18:32:13.468Z,16.90
2017-09-29T18:34:42.107Z,16.80
2017-09-29T18:37:09.877Z,16.80
2017-09-29T18:39:37.602Z,16.70
2017-09-29T18:42:05.367Z,16.70
2017-09-29T18:44:34.871Z,16.60
2017-09-29T18:47:14.419Z,16.60
2017-09-29T18:49:43.007Z,16.60
2017-09-29T18:52:10.649Z,16.60
2017-09-29T18:54:39.215Z,16.50
2017-09-29T18:57:07.525Z,16.60
2017-09-29T18:59:35.965Z,16.50
2017-09-29T19:02:05.421Z,16.50
2017-09-29T19:04:32.965Z,16.50
2017-09-29T19:07:00.579Z,16.40
2017-09-29T19:09:28.955Z,16.40
2017-09-29T19:11:57.810Z,16.40
2017-09-29T19:14:25.383Z,16.40
2017-09-29T19:16:52.970Z,16.30
2017-09-29T19:19:20.536Z,16.30
2017-09-29T19:21:48.954Z,16.30
2017-09-29T19:24:16.741Z,16.30
2017-09-29T19:26:44.275Z,16.30
2017-09-29T19:29:11.806Z,16.30
2017-09-29T19:31:40.157Z,16.30
2017-09-29T19:34:07.786Z,16.30
2017-09-29T19:36:36.975Z,16.30
2017-09-29T19:39:04.821Z,16.20
2017-09-29T19:41:33.195Z,16.20
2017-09-29T19:44:11.676Z,16.20
2017-09-29T19:46:39.298Z,16.20
2017-09-29T19:49:06.964Z,16.10
2017-09-29T19:51:34.520Z,16.10
2017-09-29T19:54:03.158Z,15.90
2017-09-29T19:56:31.006Z,15.90
2017-09-29T19:58:58.621Z,15.90
2017-09-29T20:01:26.290Z,15.90
2017-09-29T20:03:58.969Z,15.80
2017-09-29T20:06:27.053Z,15.80
2017-09-29T20:08:54.667Z,15.90
2017-09-29T20:11:23.113Z,15.80
2017-09-29T20:13:50.864Z,15.80
2017-09-29T20:16:18.827Z,15.80
2017-09-29T20:18:46.450Z,15.80
2017-09-29T20:21:14.753Z,15.80
2017-09-29T20:23:42.748Z,15.80
2017-09-29T20:26:10.293Z,15.80
2017-09-29T20:28:38.863Z,15.80
2017-09-29T20:31:07.493Z,15.80
2017-09-29T20:33:35.122Z,15.80
2017-09-29T20:36:03.113Z,15.70
2017-09-29T20:38:30.713Z,15.80
2017-09-29T20:41:00.112Z,15.70
2017-09-29T20:43:28.648Z,15.70
2017-09-29T20:45:56.301Z,15.70
2017-09-29T20:48:23.879Z,15.70
2017-09-29T20:50:51.614Z,15.60
2017-09-29T20:53:20.059Z,15.50
2017-09-29T20:55:48.698Z,15.50
2017-09-29T20:58:16.264Z,15.50
2017-09-29T21:00:43.877Z,15.50
2017-09-29T21:03:12.194Z,15.50
2017-09-29T21:05:39.736Z,15.40
2017-09-29T21:08:07.407Z,15.50
2017-09-29T21:10:34.917Z,15.50
2017-09-29T21:13:02.977Z,15.50
2017-09-29T21:15:30.697Z,15.50
2017-09-29T21:17:58.252Z,15.40
2017-09-29T21:20:25.805Z,15.30
2017-09-29T21:22:53.380Z,15.30
2017-09-29T21:25:20.907Z,15.30
2017-09-29T21:27:49.216Z,15.40
2017-09-29T21:30:16.757Z,15.40
2017-09-29T21:32:44.269Z,15.40
2017-09-29T21:35:11.842Z,15.40
2017-09-29T21:37:40.167Z,15.30
2017-09-29T21:40:07.713Z,15.30
2017-09-29T21:42:35.277Z,15.30
2017-09-29T21:45:03.912Z,15.30
2017-09-29T21:47:31.473Z,15.30
2017-09-29T21:49:59.039Z,15.30
2017-09-29T21:52:26.584Z,15.30
2017-09-29T21:54:54.196Z,15.30
2017-09-29T21:57:21.718Z,15.30
2017-09-29T21:59:49.307Z,15.40
2017-09-29T22:02:16.857Z,15.30
2017-09-29T22:04:45.164Z,15.30
2017-09-29T22:07:12.726Z,15.30
2017-09-29T22:09:40.263Z,15.30
2017-09-29T22:12:07.860Z,15.30
2017-09-29T22:14:35.401Z,15.30
2017-09-29T22:17:02.948Z,15.30
2017-09-29T22:19:30.488Z,15.30
2017-09-29T22:21:58.819Z,15.30
2017-09-29T22:24:26.392Z,15.30
2017-09-29T22:26:54.017Z,15.30
2017-09-29T22:29:21.568Z,15.30
2017-09-29T22:31:49.171Z,15.30
2017-09-29T22:34:16.700Z,15.30
2017-09-29T22:36:44.290Z,15.30
2017-09-29T22:39:11.823Z,15.20
2017-09-29T22:41:40.153Z,15.20
2017-09-29T22:44:07.706Z,15.20
2017-09-29T22:46:35.250Z,15.10
2017-09-29T22:49:02.747Z,15.20
2017-09-29T22:51:31.019Z,15.20
2017-09-29T22:53:59.322Z,15.20
2017-09-29T22:56:26.917Z,15.20
2017-09-29T22:58:54.645Z,15.20
2017-09-29T23:01:22.172Z,15.20
2017-09-29T23:03:50.568Z,15.20
2017-09-29T23:06:18.086Z,15.10
2017-09-29T23:08:45.820Z,15.10
2017-09-29T23:11:13.489Z,15.10
2017-09-29T23:13:41.061Z,15.10
2017-09-29T23:16:08.589Z,15.00
2017-09-29T23:18:36.161Z,15.00
2017-09-29T23:21:03.703Z,15.00
2017-09-29T23:23:31.378Z,15.00
2017-09-29T23:25:58.937Z,14.90
2017-09-29T23:28:26.453Z,15.00
2017-09-29T23:30:54.020Z,14.90
2017-09-29T23:33:22.420Z,14.80
2017-09-29T23:35:49.948Z,14.80
2017-09-29T23:38:18.275Z,14.80
2017-09-29T23:40:45.836Z,14.80
2017-09-29T23:43:13.497Z,14.70
2017-09-29T23:45:41.030Z,14.70
2017-09-29T23:48:08.586Z,14.70
2017-09-29T23:50:36.875Z,14.60
2017-09-29T23:53:05.673Z,14.70
2017-09-29T23:55:33.224Z,14.60
2017-09-29T23:58:00.809Z,14.70
